Time;durP1;ratioP1;P1;durP2;ratioP2;P2;SDS_P1;SDS_P2;PMS_P1;PMS_P2;Temp;Humidity;BMP_temperature;BMP_pressure;BME280_temperature;BME280_humidity;BME280_pressure;Samples;Min_cycle;Max_cycle;Signal;HPM_P1;HPM_P2
2023/12/26 00:02:20;;;;;;;6.60;2.53;;;;;;;12.86;52.73;99091.84;5033430;28;20251;-85
2023/12/26 00:04:47;;;;;;;5.80;2.23;;;;;;;12.67;53.84;99097.38;5011401;28;20217;-85
2023/12/26 00:07:13;;;;;;;8.73;2.30;;;;;;;12.56;54.26;99096.34;5033097;28;20182;-85
2023/12/26 00:09:40;;;;;;;6.90;2.00;;;;;;;12.50;54.62;99094.94;5031740;28;20185;-85
2023/12/26 00:12:07;;;;;;;3.50;1.57;;;;;;;12.43;54.48;99096.25;5032550;28;20184;-84
2023/12/26 00:14:37;;;;;;;4.57;1.30;;;;;;;12.34;54.95;99097.63;5032038;28;20178;-84
2023/12/26 00:17:02;;;;;;;4.53;1.57;;;;;;;12.36;54.98;99094.94;5032621;28;20295;-85
2023/12/26 00:19:29;;;;;;;3.50;1.33;;;;;;;12.37;54.74;99093.16;5031982;28;20674;-84
2023/12/26 00:21:55;;;;;;;6.13;2.33;;;;;;;12.62;54.12;99088.94;5032545;28;20273;-84
2023/12/26 00:24:21;;;;;;;5.63;2.27;;;;;;;12.59;53.66;99096.16;5032039;28;20206;-84
2023/12/26 00:26:47;;;;;;;5.20;1.97;;;;;;;12.57;53.81;99100.66;5032408;28;20184;-84
2023/12/26 00:29:14;;;;;;;5.07;2.03;;;;;;;12.70;53.33;99099.84;5032938;28;20189;-84
2023/12/26 00:31:41;;;;;;;4.47;2.00;;;;;;;12.61;54.03;99107.41;5033029;28;20184;-84
2023/12/26 00:34:08;;;;;;;4.93;1.90;;;;;;;12.39;54.44;99107.03;5032625;28;20180;-84
2023/12/26 00:36:41;;;;;;;5.83;1.77;;;;;;;12.40;54.81;99103.47;5032442;28;20267;-84
2023/12/26 00:39:06;;;;;;;5.63;1.67;;;;;;;12.58;54.10;99099.75;5032799;28;20176;-84
2023/12/26 00:41:33;;;;;;;7.17;1.83;;;;;;;12.49;54.51;99114.28;5033026;28;20190;-85
2023/12/26 00:43:59;;;;;;;4.27;2.17;;;;;;;12.57;53.80;99109.41;5032724;28;20207;-84
2023/12/26 00:46:25;;;;;;;5.97;2.40;;;;;;;12.32;54.68;99111.81;5032452;28;20192;-84
2023/12/26 00:48:52;;;;;;;7.33;3.23;;;;;;;12.33;54.51;99118.78;5032865;28;20217;-84
2023/12/26 00:51:18;;;;;;;11.10;4.80;;;;;;;12.51;53.73;99112.41;5014946;28;20189;-84
2023/12/26 00:53:45;;;;;;;40.53;15.17;;;;;;;12.58;53.16;99107.63;5032777;28;20277;-84
2023/12/26 00:56:14;;;;;;;80.57;26.73;;;;;;;12.59;53.28;99110.16;5032612;28;20619;-84
2023/12/26 00:58:41;;;;;;;21.83;7.47;;;;;;;12.74;52.72;99113.63;5031921;28;20182;-84
2023/12/26 01:01:10;;;;;;;10.30;3.77;;;;;;;12.50;52.64;99110.69;5032882;28;20190;-84
2023/12/26 01:03:37;;;;;;;7.87;2.53;;;;;;;12.34;53.60;99115.22;5014706;28;20198;-84
2023/12/26 01:06:03;;;;;;;3.73;1.80;;;;;;;12.44;53.30;99124.25;5032132;28;20631;-84
2023/12/26 01:08:29;;;;;;;8.43;1.90;;;;;;;12.55;52.52;99119.16;5031793;28;20196;-84
2023/12/26 01:10:56;;;;;;;5.90;1.93;;;;;;;12.64;52.56;99120.38;5034350;28;20191;-84
2023/12/26 01:13:22;;;;;;;8.40;2.03;;;;;;;12.46;52.76;99118.88;5035848;28;20175;-84
2023/12/26 01:15:47;;;;;;;5.80;1.80;;;;;;;12.31;53.49;99123.28;5036202;28;20651;-84
2023/12/26 01:18:14;;;;;;;9.37;1.93;;;;;;;12.17;53.71;99120.63;5035553;28;20274;-83
2023/12/26 01:20:40;;;;;;;5.83;2.63;;;;;;;12.30;53.61;99124.22;5035680;28;20188;-84
2023/12/26 01:23:07;;;;;;;7.70;2.30;;;;;;;12.53;52.40;99121.03;5016913;28;20210;-84
2023/12/26 01:25:33;;;;;;;6.97;2.03;;;;;;;12.55;52.32;99118.34;5035690;28;20183;-84
2023/12/26 01:28:00;;;;;;;3.60;1.83;;;;;;;12.52;52.21;99113.25;5028390;28;20191;-84
2023/12/26 01:30:26;;;;;;;4.63;1.80;;;;;;;12.44;52.58;99112.88;5006445;28;20203;-84
2023/12/26 01:32:53;;;;;;;5.03;1.80;;;;;;;12.42;52.98;99118.19;5034841;28;20194;-84
2023/12/26 01:35:18;;;;;;;6.57;1.90;;;;;;;12.42;52.52;99104.25;5035587;28;20172;-84
2023/12/26 01:37:45;;;;;;;6.43;1.70;;;;;;;12.32;52.87;99098.66;5035606;28;20548;-84
2023/12/26 01:40:11;;;;;;;3.07;1.40;;;;;;;12.07;53.66;99101.09;5034538;28;20266;-84
2023/12/26 01:42:40;;;;;;;3.57;1.80;;;;;;;11.88;54.18;99103.94;5035254;28;20285;-84
2023/12/26 01:45:07;;;;;;;6.03;1.80;;;;;;;11.80;54.74;99100.06;5035370;28;20198;-84
2023/12/26 01:47:33;;;;;;;4.77;1.93;;;;;;;11.81;55.04;99104.38;5018221;28;20267;-84
2023/12/26 01:50:01;;;;;;;6.57;1.90;;;;;;;11.82;55.18;99100.84;5034844;28;20188;-84
2023/12/26 01:52:28;;;;;;;8.57;2.47;;;;;;;11.84;55.06;99098.97;5034783;28;20182;-84
2023/12/26 01:54:55;;;;;;;4.37;2.07;;;;;;;11.80;54.98;99097.44;5026893;28;20194;-84
2023/12/26 01:57:20;;;;;;;6.73;2.10;;;;;;;11.81;55.24;99104.38;5035017;28;20191;-84
2023/12/26 01:59:47;;;;;;;4.50;2.17;;;;;;;11.88;55.57;99100.47;5017868;28;20588;-83
2023/12/26 02:02:14;;;;;;;4.00;2.27;;;;;;;11.95;55.21;99097.38;5035216;28;20175;-83
2023/12/26 02:04:41;;;;;;;7.63;2.67;;;;;;;12.07;55.13;99099.31;5035242;28;20203;-83
2023/12/26 02:07:08;;;;;;;6.93;1.77;;;;;;;11.89;55.27;99102.16;5035153;28;20250;-83
2023/12/26 02:09:34;;;;;;;3.63;1.77;;;;;;;11.68;56.14;99115.59;5034572;28;20668;-84
2023/12/26 02:12:01;;;;;;;9.33;2.43;;;;;;;11.82;56.26;99112.16;5034821;28;20279;-84
2023/12/26 02:14:28;;;;;;;5.70;2.20;;;;;;;12.05;55.49;99114.31;5017351;28;20629;-84
2023/12/26 02:16:55;;;;;;;8.90;2.37;;;;;;;12.23;54.34;99107.13;5035360;28;20240;-83
2023/12/26 02:19:24;;;;;;;4.17;1.90;;;;;;;12.38;53.90;99116.72;5034930;28;20191;-83
2023/12/26 02:21:51;;;;;;;4.07;1.40;;;;;;;12.47;53.65;99115.31;5034454;28;20190;-83
2023/12/26 02:24:18;;;;;;;8.33;2.00;;;;;;;12.54;53.20;99112.22;5016919;28;20209;-83
2023/12/26 02:26:45;;;;;;;5.00;1.83;;;;;;;12.54;52.94;99111.38;5034899;28;20235;-84
2023/12/26 02:29:13;;;;;;;5.10;1.30;;;;;;;12.27;53.32;99119.13;5035111;28;20191;-83
2023/12/26 02:31:42;;;;;;;8.40;1.70;;;;;;;11.99;54.32;99119.06;5035032;28;20257;-84
2023/12/26 02:34:09;;;;;;;3.33;1.27;;;;;;;12.02;54.55;99122.38;5034934;28;20171;-83
2023/12/26 02:36:34;;;;;;;2.77;1.30;;;;;;;12.04;54.30;99127.53;5034669;28;20179;-83
2023/12/26 02:39:01;;;;;;;4.40;1.43;;;;;;;11.85;54.58;99134.78;5034590;28;20190;-84
2023/12/26 02:41:28;;;;;;;3.50;1.20;;;;;;;11.87;55.05;99140.81;5035145;28;20231;-84
2023/12/26 02:43:53;;;;;;;6.57;1.50;;;;;;;12.12;53.94;99146.31;5034083;28;20214;-83
2023/12/26 02:46:20;;;;;;;3.27;1.10;;;;;;;12.09;53.58;99146.50;5034804;28;20182;-83
2023/12/26 02:48:46;;;;;;;3.23;1.30;;;;;;;11.87;54.45;99140.81;5017002;28;20197;-84
2023/12/26 02:51:12;;;;;;;5.30;1.60;;;;;;;11.66;54.93;99142.84;5034409;28;20629;-84
2023/12/26 02:53:39;;;;;;;4.20;1.10;;;;;;;11.52;55.32;99137.53;5034629;28;20249;-84
2023/12/26 02:56:04;;;;;;;3.20;1.27;;;;;;;11.67;55.03;99137.50;5016665;28;20556;-84
2023/12/26 02:58:32;;;;;;;5.00;1.13;;;;;;;11.70;54.38;99134.75;5034555;28;20174;-83
2023/12/26 03:00:58;;;;;;;6.20;1.63;;;;;;;11.66;54.57;99143.69;5034790;28;20183;-83
2023/12/26 03:03:25;;;;;;;3.80;1.67;;;;;;;11.57;54.92;99141.59;5033180;28;20574;-83
2023/12/26 03:05:52;;;;;;;7.53;1.77;;;;;;;11.53;55.09;99137.44;5034389;28;20190;-83
2023/12/26 03:08:18;;;;;;;7.70;1.90;;;;;;;11.53;54.70;99142.69;5033939;28;20183;-83
2023/12/26 03:10:46;;;;;;;5.93;1.70;;;;;;;11.53;54.61;99142.69;5033840;28;20265;-83
2023/12/26 03:13:12;;;;;;;3.73;1.37;;;;;;;11.35;55.05;99135.84;5033433;28;20179;-84
2023/12/26 03:15:39;;;;;;;5.33;1.70;;;;;;;11.28;55.45;99138.88;5034181;28;20529;-84
2023/12/26 03:18:06;;;;;;;3.63;1.43;;;;;;;11.30;55.41;99140.50;5033487;28;20280;-84
2023/12/26 03:20:33;;;;;;;2.77;1.30;;;;;;;11.31;55.58;99136.09;5034375;28;20178;-84
2023/12/26 03:22:58;;;;;;;4.13;1.50;;;;;;;11.28;55.42;99144.13;5033631;28;20232;-84
2023/12/26 03:25:25;;;;;;;6.77;1.70;;;;;;;11.24;55.50;99146.06;5033190;28;20182;-84
2023/12/26 03:27:50;;;;;;;2.83;1.40;;;;;;;11.33;55.14;99140.34;5016064;28;20620;-84
2023/12/26 03:30:17;;;;;;;3.63;1.50;;;;;;;11.40;54.87;99146.09;5033967;28;20170;-84
2023/12/26 03:32:44;;;;;;;7.33;1.67;;;;;;;11.46;54.60;99148.38;5015577;28;20174;-84
2023/12/26 03:35:11;;;;;;;4.20;1.50;;;;;;;11.46;53.99;99146.59;5033755;28;20265;-84
2023/12/26 03:37:38;;;;;;;6.50;1.70;;;;;;;11.52;54.09;99148.88;5033627;28;20617;-84
2023/12/26 03:40:06;;;;;;;5.93;1.80;;;;;;;11.57;53.82;99146.84;5033408;28;20186;-84
2023/12/26 03:42:33;;;;;;;5.00;1.13;;;;;;;11.62;53.44;99152.69;5032830;28;20186;-84
2023/12/26 03:45:00;;;;;;;4.50;1.80;;;;;;;11.64;53.51;99163.94;5033535;28;20260;-84
2023/12/26 03:47:27;;;;;;;6.80;2.03;;;;;;;11.45;54.08;99165.06;5033963;28;20232;-84
2023/12/26 03:49:53;;;;;;;4.80;2.00;;;;;;;11.24;54.14;99171.50;5033134;28;20243;-84
2023/12/26 03:52:19;;;;;;;5.33;2.13;;;;;;;11.09;54.88;99170.53;5033124;28;20182;-84
2023/12/26 03:54:45;;;;;;;5.57;2.57;;;;;;;11.00;55.23;99179.75;5033085;28;20328;-84
2023/12/26 03:57:12;;;;;;;10.30;1.87;;;;;;;10.87;55.51;99183.09;5033874;28;20225;-84
2023/12/26 03:59:39;;;;;;;6.53;2.37;;;;;;;10.74;56.07;99187.31;5015766;28;20190;-84
2023/12/26 04:02:05;;;;;;;4.67;1.63;;;;;;;10.71;56.07;99193.56;5033190;28;20189;-84
2023/12/26 04:04:32;;;;;;;4.03;1.90;;;;;;;10.89;55.35;99189.13;5032964;28;20194;-84
2023/12/26 04:06:59;;;;;;;3.57;1.77;;;;;;;10.91;55.07;99190.72;5033196;28;20253;-84
2023/12/26 04:09:25;;;;;;;7.07;1.90;;;;;;;11.02;54.82;99201.50;5032587;28;20194;-84
2023/12/26 04:11:52;;;;;;;5.73;1.47;;;;;;;11.07;54.52;99202.09;5033117;28;20249;-83
2023/12/26 04:14:18;;;;;;;4.23;1.93;;;;;;;11.13;54.13;99200.94;5033218;28;20252;-84
2023/12/26 04:16:44;;;;;;;5.33;2.70;;;;;;;11.11;53.67;99205.38;5033096;28;20174;-84
2023/12/26 04:19:09;;;;;;;7.10;3.37;;;;;;;11.16;53.49;99215.66;5032463;28;20241;-83
2023/12/26 04:21:36;;;;;;;7.17;2.87;;;;;;;11.14;53.52;99213.09;5033345;28;20182;-84
2023/12/26 04:24:01;;;;;;;5.40;2.80;;;;;;;11.06;53.52;99218.75;5032953;28;20225;-84
2023/12/26 04:26:27;;;;;;;7.10;2.30;;;;;;;10.79;54.14;99224.63;5033295;28;20213;-83
2023/12/26 04:28:52;;;;;;;6.93;2.27;;;;;;;10.56;54.93;99217.91;5032312;28;20175;-85
2023/12/26 04:31:17;;;;;;;5.30;2.10;;;;;;;10.56;54.96;99224.97;5015237;28;20182;-85
2023/12/26 04:33:45;;;;;;;4.50;1.93;;;;;;;10.56;55.22;99230.19;5032863;28;20201;-84
2023/12/26 04:36:10;;;;;;;5.63;2.27;;;;;;;10.58;55.22;99231.81;5015303;28;20546;-84
2023/12/26 04:38:37;;;;;;;6.60;2.30;;;;;;;10.63;54.71;99232.41;5032626;28;20178;-84
2023/12/26 04:41:09;;;;;;;4.67;1.70;;;;;;;10.55;55.00;99239.81;5032706;28;20664;-85
2023/12/26 04:43:36;;;;;;;6.23;1.90;;;;;;;10.55;54.55;99244.22;5013908;28;20626;-84
2023/12/26 04:46:02;;;;;;;3.17;1.67;;;;;;;10.52;54.84;99244.38;5019955;28;20179;-84
2023/12/26 04:48:28;;;;;;;5.80;2.13;;;;;;;10.57;54.55;99242.34;5036725;28;20584;-84
2023/12/26 04:50:54;;;;;;;8.63;3.33;;;;;;;10.49;54.59;99251.47;5036676;28;20174;-84
2023/12/26 04:53:19;;;;;;;6.27;2.50;;;;;;;10.44;54.72;99256.09;5036098;28;20175;-84
2023/12/26 04:55:46;;;;;;;6.53;2.90;;;;;;;10.24;55.52;99265.88;5036593;28;20181;-84
2023/12/26 04:58:12;;;;;;;7.20;3.30;;;;;;;10.22;55.42;99260.69;5035650;28;20182;-84
2023/12/26 05:00:39;;;;;;;9.60;3.20;;;;;;;10.28;55.22;99252.53;5036235;28;20204;-84
2023/12/26 05:03:06;;;;;;;9.60;3.23;;;;;;;10.31;54.95;99260.25;5036374;28;20175;-84
2023/12/26 05:05:32;;;;;;;6.13;3.20;;;;;;;10.38;54.85;99259.00;5028726;28;20273;-84
2023/12/26 05:07:59;;;;;;;15.60;6.73;;;;;;;10.38;54.47;99259.00;5018010;28;20638;-84
2023/12/26 05:10:24;;;;;;;36.50;12.07;;;;;;;10.41;54.43;99251.00;5018607;28;20178;-84
2023/12/26 05:12:52;;;;;;;31.47;10.07;;;;;;;10.30;54.56;99261.16;5035657;28;20262;-84
2023/12/26 05:15:19;;;;;;;13.00;5.33;;;;;;;10.16;55.37;99255.75;5036264;28;20694;-84
2023/12/26 05:17:46;;;;;;;13.50;5.47;;;;;;;10.25;55.19;99265.78;5034283;28;20230;-84
2023/12/26 05:20:11;;;;;;;11.47;3.10;;;;;;;10.09;55.56;99256.94;5023574;28;20186;-84
2023/12/26 05:22:37;;;;;;;5.17;2.73;;;;;;;10.05;55.90;99265.88;5036100;28;20175;-84
2023/12/26 05:25:04;;;;;;;6.97;2.40;;;;;;;9.95;56.21;99269.00;5029469;28;20294;-84
2023/12/26 05:27:31;;;;;;;9.07;2.63;;;;;;;9.82;56.75;99276.59;5016251;28;20171;-84
2023/12/26 05:29:57;;;;;;;7.13;2.43;;;;;;;9.92;56.37;99270.00;5016179;28;20179;-84
2023/12/26 05:32:24;;;;;;;6.17;2.47;;;;;;;9.90;56.75;99272.69;5030476;28;20683;-83
2023/12/26 05:34:55;;;;;;;7.90;1.73;;;;;;;9.90;56.57;99274.47;5035875;28;20236;-84
2023/12/26 05:37:22;;;;;;;5.90;2.00;;;;;;;9.83;56.66;99281.75;5034879;28;20178;-84
2023/12/26 05:39:50;;;;;;;4.17;2.00;;;;;;;9.73;57.02;99284.88;5035527;28;20225;-83
2023/12/26 05:42:17;;;;;;;4.53;1.97;;;;;;;9.68;57.25;99281.63;5035997;28;20632;-83
2023/12/26 05:44:44;;;;;;;5.80;1.90;;;;;;;9.87;56.73;99292.94;5036174;28;20198;-83
2023/12/26 05:47:11;;;;;;;4.63;1.83;;;;;;;9.94;56.51;99294.34;5035335;28;20257;-83
2023/12/26 05:49:37;;;;;;;5.63;2.27;;;;;;;10.13;55.78;99284.72;5034982;28;20196;-83
2023/12/26 05:52:05;;;;;;;3.77;1.40;;;;;;;10.17;55.51;99280.16;5018117;28;20174;-83
2023/12/26 05:54:31;;;;;;;5.20;2.23;;;;;;;10.19;55.57;99281.81;5034482;28;20178;-83
2023/12/26 05:56:58;;;;;;;9.73;4.37;;;;;;;10.21;55.74;99281.72;5035317;28;20177;-83
2023/12/26 05:59:24;;;;;;;7.27;3.20;;;;;;;10.23;55.65;99283.34;5035975;28;20184;-84
2023/12/26 06:01:51;;;;;;;7.70;3.37;;;;;;;10.16;55.81;99281.09;5035922;28;20256;-83
2023/12/26 06:04:18;;;;;;;9.07;2.97;;;;;;;10.06;56.45;99293.78;5035060;28;20252;-84
2023/12/26 06:06:44;;;;;;;9.20;2.50;;;;;;;10.11;56.40;99311.88;5019205;28;20193;-84
2023/12/26 06:09:10;;;;;;;6.50;2.43;;;;;;;10.21;56.13;99307.91;5029456;28;20184;-84
2023/12/26 06:11:37;;;;;;;4.93;1.90;;;;;;;10.31;56.16;99304.78;5035480;28;20178;-83
2023/12/26 06:14:05;;;;;;;8.73;2.63;;;;;;;10.46;55.92;99303.16;5035686;28;20189;-83
2023/12/26 06:16:32;;;;;;;4.73;2.33;;;;;;;10.48;55.92;99299.53;5034921;28;20193;-83
2023/12/26 06:18:58;;;;;;;5.70;2.30;;;;;;;10.62;55.50;99311.13;5034566;28;20236;-83
2023/12/26 06:21:25;;;;;;;5.43;2.37;;;;;;;10.68;55.71;99302.97;5034371;28;20185;-83
2023/12/26 06:23:50;;;;;;;6.13;2.53;;;;;;;10.69;55.99;99295.00;5034664;28;20210;-83
2023/12/26 06:26:17;;;;;;;6.07;2.00;;;;;;;10.80;55.65;99289.22;5034910;28;20184;-83
2023/12/26 06:28:43;;;;;;;6.57;2.13;;;;;;;10.91;55.59;99289.53;5017437;28;20518;-84
2023/12/26 06:31:14;;;;;;;4.77;1.77;;;;;;;10.99;55.58;99292.59;5034677;28;20187;-84
2023/12/26 06:33:40;;;;;;;4.30;1.80;;;;;;;11.04;55.21;99283.56;5034171;28;20248;-84
2023/12/26 06:36:07;;;;;;;4.90;2.03;;;;;;;11.55;55.49;99287.84;5034552;28;20217;-85
2023/12/26 06:38:34;;;;;;;3.97;2.30;;;;;;;13.05;53.14;99279.19;5016875;28;20216;-84
2023/12/26 06:41:02;;;;;;;4.27;1.80;;;;;;;14.71;48.37;99273.78;5025384;28;20201;-84
2023/12/26 06:43:28;;;;;;;2.27;1.27;;;;;;;16.31;44.08;99268.59;5016189;28;20599;-84
2023/12/26 06:45:54;;;;;;;6.30;1.73;;;;;;;17.78;40.73;99261.56;5007347;28;20184;-84
2023/12/26 06:48:21;;;;;;;3.97;1.97;;;;;;;18.74;37.79;99265.13;5016883;28;20530;-84
2023/12/26 06:50:47;;;;;;;7.83;2.93;;;;;;;19.01;36.64;99264.63;5034381;28;20265;-84
2023/12/26 06:53:12;;;;;;;6.00;2.10;;;;;;;18.74;37.12;99267.78;5031739;28;20248;-85
2023/12/26 06:55:38;;;;;;;5.10;1.93;;;;;;;18.82;37.01;99267.16;5018770;28;20187;-85
2023/12/26 06:58:04;;;;;;;8.13;2.80;;;;;;;18.65;37.31;99267.72;5014124;28;20676;-85
2023/12/26 07:00:31;;;;;;;16.20;3.60;;;;;;;18.49;37.76;99273.47;5028161;28;20319;-85
2023/12/26 07:02:56;;;;;;;16.60;5.90;;;;;;;18.32;38.17;99266.00;5016514;28;20184;-85
2023/12/26 07:05:23;;;;;;;12.20;4.20;;;;;;;17.90;39.13;99282.78;5030228;28;20278;-84
2023/12/26 07:07:49;;;;;;;10.23;3.30;;;;;;;17.71;40.10;99288.72;5026926;28;20193;-85
2023/12/26 07:10:14;;;;;;;3.57;1.70;;;;;;;17.66;40.31;99283.75;5008688;28;20181;-85
2023/12/26 07:12:40;;;;;;;6.33;1.87;;;;;;;17.50;40.63;99288.56;5032734;28;20193;-85
2023/12/26 07:15:06;;;;;;;5.37;2.00;;;;;;;17.48;40.79;99281.69;5031671;28;20330;-85
2023/12/26 07:17:33;;;;;;;5.43;1.73;;;;;;;17.23;41.10;99289.84;5031799;28;20228;-86
2023/12/26 07:20:00;;;;;;;6.33;1.90;;;;;;;17.00;41.94;99288.97;5011788;28;20241;-85
2023/12/26 07:22:28;;;;;;;4.67;1.60;;;;;;;16.70;42.57;99280.69;5019625;28;20602;-86
2023/12/26 07:25:03;;;;;;;6.23;2.27;;;;;;;16.36;43.78;99285.81;4998228;28;20280;-86
2023/12/26 07:27:30;;;;;;;7.23;2.47;;;;;;;16.12;44.50;99284.97;5016402;28;20185;-86
2023/12/26 07:29:57;;;;;;;7.17;2.77;;;;;;;15.96;45.16;99293.16;5011936;28;20225;-86
2023/12/26 07:32:23;;;;;;;8.80;3.37;;;;;;;15.89;45.56;99283.16;5022156;28;20272;-86
2023/12/26 07:34:48;;;;;;;15.83;5.67;;;;;;;15.71;46.42;99279.19;5020421;28;20672;-87
2023/12/26 07:37:13;;;;;;;18.30;6.07;;;;;;;15.66;47.03;99276.88;5017350;28;20207;-86
2023/12/26 07:39:40;;;;;;;19.03;7.10;;;;;;;15.62;47.36;99279.81;5023505;28;20189;-86
2023/12/26 07:42:07;;;;;;;17.87;6.77;;;;;;;15.60;47.88;99281.72;5023418;28;20223;-86
2023/12/26 07:44:33;;;;;;;16.63;6.13;;;;;;;15.59;49.27;99280.06;4995033;28;20638;-85
2023/12/26 07:47:00;;;;;;;13.83;4.07;;;;;;;15.58;51.17;99281.84;4997647;28;20651;-86
2023/12/26 07:49:25;;;;;;;12.83;5.13;;;;;;;15.53;51.92;99281.31;5002769;28;20219;-85
2023/12/26 07:51:51;;;;;;;9.50;4.57;;;;;;;15.58;53.24;99288.91;5011631;28;20215;-85
2023/12/26 07:54:21;;;;;;;20.17;6.53;;;;;;;15.66;53.50;99289.22;4993586;28;20176;-86
2023/12/26 07:56:46;;;;;;;17.07;6.17;;;;;;;15.82;53.85;99287.19;5007583;28;20193;-85
2023/12/26 07:59:14;;;;;;;9.23;4.30;;;;;;;15.99;54.09;99289.44;5009245;28;20185;-85
2023/12/26 08:01:41;;;;;;;12.73;4.53;;;;;;;16.16;54.27;99281.16;4995578;28;20213;-85
2023/12/26 08:04:08;;;;;;;11.00;4.23;;;;;;;16.34;53.90;99277.16;5012401;28;20574;-86
2023/12/26 08:06:34;;;;;;;13.67;3.73;;;;;;;16.53;54.35;99276.69;4999696;28;20190;-87
2023/12/26 08:09:03;;;;;;;13.10;3.37;;;;;;;16.76;54.48;99275.78;4988138;28;20206;-86
2023/12/26 08:11:31;;;;;;;11.17;4.10;;;;;;;16.95;54.78;99277.88;4995661;28;20197;-86
2023/12/26 08:13:58;;;;;;;12.90;4.10;;;;;;;17.14;53.43;99284.28;5012883;28;20189;-86
2023/12/26 08:16:28;;;;;;;11.27;3.83;;;;;;;17.31;53.92;99271.56;5009750;28;20198;-86
2023/12/26 08:19:06;;;;;;;13.17;3.47;;;;;;;17.52;53.41;99273.38;5023879;28;20239;-87
2023/12/26 08:21:34;;;;;;;10.63;3.63;;;;;;;17.66;53.70;99275.78;5035907;28;20289;-86
2023/12/26 08:24:00;;;;;;;7.77;2.83;;;;;;;17.81;53.45;99271.09;5034676;28;20212;-86
2023/12/26 08:26:35;;;;;;;14.30;5.33;;;;;;;17.89;52.70;99273.97;5035036;28;20562;-86
2023/12/26 08:29:02;;;;;;;13.07;5.03;;;;;;;18.07;53.30;99271.66;5019235;28;20197;-86
2023/12/26 08:31:29;;;;;;;9.53;4.83;;;;;;;18.25;53.15;99276.31;5016815;28;20285;-87
2023/12/26 08:33:58;;;;;;;12.67;4.57;;;;;;;18.43;53.11;99264.16;5036253;28;20185;-87
2023/12/26 08:36:27;;;;;;;20.23;4.90;;;;;;;18.63;52.54;99267.84;5033869;28;20661;-87
2023/12/26 08:38:54;;;;;;;13.40;5.43;;;;;;;18.81;52.08;99257.50;5018861;28;20657;-88
2023/12/26 08:41:22;;;;;;;13.53;6.97;;;;;;;18.99;51.70;99267.44;5035344;28;20220;-87
2023/12/26 08:43:50;;;;;;;10.77;4.67;;;;;;;19.21;51.41;99260.28;5035537;28;20268;-87
2023/12/26 08:46:18;;;;;;;14.87;5.93;;;;;;;19.36;50.96;99261.63;5034821;28;20185;-87
2023/12/26 08:48:44;;;;;;;12.47;4.23;;;;;;;19.53;50.94;99261.84;5034224;28;20190;-88
2023/12/26 08:51:11;;;;;;;13.10;3.60;;;;;;;19.72;50.21;99257.59;5018992;28;20220;-88
2023/12/26 08:53:39;;;;;;;15.33;4.57;;;;;;;19.64;49.57;99258.25;5015985;28;20192;-87
2023/12/26 08:56:06;;;;;;;11.73;5.03;;;;;;;19.82;49.56;99256.63;5032765;28;20179;-88
2023/12/26 08:58:33;;;;;;;10.23;4.57;;;;;;;19.96;49.20;99250.09;5018644;28;20193;-88
2023/12/26 09:01:00;;;;;;;13.10;3.90;;;;;;;20.17;48.66;99257.00;5017994;28;20182;-88
2023/12/26 09:03:28;;;;;;;9.23;3.63;;;;;;;20.36;48.12;99244.72;5036112;28;20544;-88
2023/12/26 09:05:55;;;;;;;7.90;3.17;;;;;;;20.55;47.54;99242.03;5034558;28;20247;-85
2023/12/26 09:08:20;;;;;;;6.07;2.63;;;;;;;20.54;46.96;99238.56;5018935;28;20399;-86
2023/12/26 09:10:47;;;;;;;10.27;2.73;;;;;;;20.59;47.34;99238.13;5018473;28;20178;-86
2023/12/26 09:13:16;;;;;;;6.53;2.20;;;;;;;20.32;47.58;99238.81;5035681;28;20186;-86
2023/12/26 09:15:43;;;;;;;6.67;2.60;;;;;;;20.42;47.69;99225.50;5031828;28;20183;-86
2023/12/26 09:18:11;;;;;;;4.83;2.40;;;;;;;20.66;47.58;99224.09;5032702;28;20191;-87
2023/12/26 09:20:37;;;;;;;12.80;3.07;;;;;;;20.85;47.43;99225.91;5033231;28;20213;-86
2023/12/26 09:23:04;;;;;;;7.77;2.93;;;;;;;21.10;46.76;99219.97;5036080;28;20328;-87
2023/12/26 09:25:30;;;;;;;15.20;3.33;;;;;;;21.24;46.53;99227.50;5014276;28;20207;-87
2023/12/26 09:27:57;;;;;;;4.53;1.70;;;;;;;21.35;46.22;99213.16;5030555;28;20557;-86
2023/12/26 09:30:22;;;;;;;10.60;2.10;;;;;;;21.50;45.24;99210.84;5031642;28;20194;-87
2023/12/26 09:32:48;;;;;;;7.33;1.90;;;;;;;21.66;44.76;99214.56;5030879;28;20175;-86
2023/12/26 09:35:16;;;;;;;8.73;2.30;;;;;;;21.78;44.51;99210.69;5034637;28;20197;-87
2023/12/26 09:37:42;;;;;;;12.53;2.97;;;;;;;21.85;44.46;99200.25;5034068;28;20197;-87
2023/12/26 09:40:11;;;;;;;8.37;1.93;;;;;;;21.78;44.31;99193.81;5033260;28;20186;-87
2023/12/26 09:42:41;;;;;;;6.40;2.13;;;;;;;21.50;44.45;99195.69;5031370;28;20178;-87
2023/12/26 09:45:11;;;;;;;6.47;1.77;;;;;;;21.46;44.57;99185.47;5034261;28;20206;-89
2023/12/26 09:47:42;;;;;;;6.50;1.50;;;;;;;21.41;45.28;99186.72;5001735;28;20198;-85
2023/12/26 09:50:10;;;;;;;9.03;1.57;;;;;;;21.49;44.95;99185.16;5018707;28;20236;-89
2023/12/26 09:52:38;;;;;;;7.70;1.97;;;;;;;21.64;44.99;99175.69;5017962;28;20183;-87
2023/12/26 09:55:06;;;;;;;5.77;1.83;;;;;;;21.62;44.84;99177.66;5035804;28;20248;-87
2023/12/26 09:57:33;;;;;;;8.53;1.80;;;;;;;21.54;45.48;99177.56;5016658;28;20189;-87
2023/12/26 10:00:15;;;;;;;6.27;1.73;;;;;;;21.41;45.70;99170.72;5035030;28;20182;-90
2023/12/26 10:02:49;;;;;;;9.33;1.67;;;;;;;21.41;46.01;99168.06;5008794;28;20210;-88
2023/12/26 10:05:15;;;;;;;8.20;1.53;;;;;;;21.70;45.71;99161.72;5034621;28;20232;-88
2023/12/26 10:07:42;;;;;;;8.00;1.63;;;;;;;21.80;45.38;99159.84;5016142;28;20197;-88
2023/12/26 10:10:11;;;;;;;3.73;1.23;;;;;;;21.88;45.38;99163.47;5035181;28;20186;-87
2023/12/26 10:12:40;;;;;;;6.97;1.60;;;;;;;22.10;44.73;99159.50;5015568;28;20178;-87
2023/12/26 10:15:06;;;;;;;6.20;1.83;;;;;;;22.25;44.01;99165.16;5032413;28;20273;-88
2023/12/26 10:17:33;;;;;;;6.30;1.73;;;;;;;22.07;44.53;99153.63;5014910;28;20185;-90
2023/12/26 10:19:59;;;;;;;4.23;1.40;;;;;;;22.11;44.05;99147.84;5014609;28;20234;-90
2023/12/26 10:22:25;;;;;;;5.17;1.40;;;;;;;21.95;44.11;99139.69;5032869;28;20218;-90
2023/12/26 10:24:55;;;;;;;6.63;1.20;;;;;;;22.04;44.13;99142.25;5034012;28;20218;-92
2023/12/26 10:27:22;;;;;;;6.43;1.27;;;;;;;21.97;44.52;99135.03;5031852;28;20191;-93
2023/12/26 10:29:57;;;;;;;5.60;1.50;;;;;;;22.07;44.22;99129.59;5032938;28;20197;-92
2023/12/26 10:32:27;;;;;;;9.30;1.87;;;;;;;22.15;44.58;99117.16;5033174;28;20181;-90
2023/12/26 10:34:53;;;;;;;6.07;1.57;;;;;;;21.98;45.17;99124.22;5030887;28;20210;-91
2023/12/26 10:37:25;;;;;;;8.00;1.53;;;;;;;21.73;45.38;99113.41;5014388;28;20613;-91
2023/12/26 10:39:51;;;;;;;7.40;1.40;;;;;;;21.77;45.93;99112.13;5011363;28;20193;-91
2023/12/26 10:42:19;;;;;;;4.87;1.13;;;;;;;21.83;45.06;99111.50;5033025;28;20190;-90
2023/12/26 10:45:12;;;;;;;5.00;1.77;;;;;;;21.95;45.81;99116.50;5016922;28;20210;-92
2023/12/26 10:47:42;;;;;;;7.30;1.90;;;;;;;22.02;44.68;99114.06;5028872;28;20199;-90
2023/12/26 10:50:12;;;;;;;6.53;1.63;;;;;;;22.08;44.80;99109.94;5017405;28;20217;-92
2023/12/26 10:53:14;;;;;;;4.30;1.27;;;;;;;21.94;45.04;99103.28;5000060;28;20206;-92
2023/12/26 10:56:10;;;;;;;9.10;1.80;;;;;;;22.15;43.98;99101.16;5028245;28;20251;-92
2023/12/26 10:58:37;;;;;;;5.83;1.47;;;;;;;22.42;43.25;99095.69;5007414;28;20195;-92
2023/12/26 11:01:05;;;;;;;6.57;1.60;;;;;;;22.44;42.91;99093.69;5012644;28;20178;-91
2023/12/26 13:52:13;;;;;;;7.50;2.07;;;;;;;21.14;44.92;98978.81;5035143;28;20209;-92
2023/12/26 13:55:15;;;;;;;5.90;1.83;;;;;;;21.24;45.09;98982.25;5031914;28;20186;-91
2023/12/26 13:58:18;;;;;;;5.10;1.13;;;;;;;21.29;44.89;98982.63;5030104;28;20264;-91
2023/12/26 14:01:21;;;;;;;9.97;2.17;;;;;;;21.20;45.36;98980.84;5034218;28;20196;-90
2023/12/26 14:04:24;;;;;;;6.53;1.57;;;;;;;20.95;45.72;98984.22;5033309;28;20224;-90
2023/12/26 14:07:27;;;;;;;4.80;1.30;;;;;;;20.68;46.06;98984.22;5015034;28;20200;-92
2023/12/26 14:10:30;;;;;;;7.77;1.53;;;;;;;20.63;46.46;98981.16;5005581;28;20179;-91
2023/12/26 14:13:33;;;;;;;3.13;1.20;;;;;;;20.64;46.52;98974.84;5029251;28;20205;-92
2023/12/26 14:16:36;;;;;;;9.13;2.17;;;;;;;20.64;46.82;98966.88;5026248;28;20220;-92
2023/12/26 14:19:38;;;;;;;7.53;1.70;;;;;;;20.60;46.83;98968.13;5026668;28;20233;-91
2023/12/26 14:22:41;;;;;;;5.50;1.43;;;;;;;20.21;47.77;98981.56;5033038;28;20190;-90
2023/12/26 14:25:44;;;;;;;7.40;1.40;;;;;;;20.15;48.11;98973.34;5034073;28;20683;-88
2023/12/26 14:28:47;;;;;;;4.80;1.13;;;;;;;19.72;48.97;98968.53;5019545;28;20248;-88